createdAt,value
2018-03-19T19:34:49.166Z,19.87
2018-03-19T19:37:16.768Z,24.67
2018-03-19T19:39:44.451Z,16.07
2018-03-19T19:42:12.066Z,15.60
2018-03-19T19:44:39.657Z,14.37
2018-03-19T19:47:07.262Z,12.93
2018-03-19T19:49:35.642Z,15.03
2018-03-19T19:52:04.000Z,11.70
2018-03-19T19:54:31.626Z,17.83
2018-03-19T19:56:59.227Z,14.53
2018-03-19T19:59:26.818Z,13.13
2018-03-19T20:01:54.418Z,19.23
2018-03-19T20:04:22.037Z,16.77
2018-03-19T20:06:49.630Z,13.97
2018-03-19T20:09:17.222Z,15.97
2018-03-19T20:11:44.846Z,16.23
2018-03-19T20:14:12.442Z,13.77
2018-03-19T20:16:40.034Z,14.27
2018-03-19T20:19:07.630Z,12.80
2018-03-19T20:21:35.221Z,15.50
2018-03-19T20:24:02.810Z,13.47
2018-03-19T20:26:30.434Z,15.63
2018-03-19T20:28:58.057Z,15.27
2018-03-19T20:31:25.653Z,15.53
2018-03-19T20:33:53.298Z,15.00
2018-03-19T20:36:20.888Z,13.73
2018-03-19T20:38:48.588Z,14.57
2018-03-19T20:41:16.247Z,12.63
2018-03-19T20:43:43.838Z,13.60
2018-03-19T20:46:11.433Z,17.57
2018-03-19T20:48:39.077Z,13.63
2018-03-19T20:51:06.687Z,8.30
2018-03-19T20:53:34.277Z,7.97
2018-03-19T20:56:01.878Z,10.87
2018-03-19T20:58:29.474Z,12.27
2018-03-19T21:00:57.069Z,12.43
2018-03-19T21:03:24.716Z,18.33
2018-03-19T21:05:52.378Z,16.40
2018-03-19T21:08:19.959Z,15.33
2018-03-19T21:10:47.571Z,14.53
2018-03-19T21:13:15.164Z,14.33
2018-03-19T21:15:42.762Z,14.37
2018-03-19T21:18:10.374Z,13.40
2018-03-19T21:20:37.962Z,15.77
2018-03-19T21:23:05.577Z,11.47
2018-03-19T21:25:33.174Z,10.60
2018-03-19T21:28:00.792Z,9.13
2018-03-19T21:30:28.385Z,10.50
2018-03-19T21:32:55.998Z,11.43
2018-03-19T21:35:23.588Z,15.23
2018-03-19T21:37:51.174Z,19.63
2018-03-19T21:40:18.782Z,19.47
2018-03-19T21:42:46.414Z,13.57
2018-03-19T21:45:14.778Z,13.00
2018-03-19T21:47:42.390Z,16.40
2018-03-19T21:50:09.978Z,13.00
2018-03-19T21:52:37.566Z,9.53
2018-03-19T21:55:05.195Z,8.87
2018-03-19T21:57:32.778Z,9.20
2018-03-19T22:00:00.382Z,12.13
2018-03-19T22:02:27.994Z,11.57
2018-03-19T22:04:55.589Z,12.43
2018-03-19T22:07:23.942Z,7.13
2018-03-19T22:09:51.545Z,8.97
2018-03-19T22:12:19.135Z,7.17
2018-03-19T22:14:46.733Z,9.20
2018-03-19T22:17:15.134Z,8.57
2018-03-19T22:19:42.736Z,10.47
2018-03-19T22:22:10.330Z,11.40
2018-03-19T22:24:37.936Z,9.43
2018-03-19T22:27:05.547Z,8.17
2018-03-19T22:29:33.173Z,7.97
2018-03-19T22:32:00.795Z,7.93
2018-03-19T22:34:28.420Z,8.97
2018-03-19T22:36:56.123Z,6.73
2018-03-19T22:39:23.758Z,10.90
2018-03-19T22:41:51.378Z,10.73
2018-03-19T22:44:18.978Z,9.43
2018-03-19T22:46:47.378Z,7.57
2018-03-19T22:49:14.982Z,11.83
2018-03-19T22:51:42.602Z,6.77
2018-03-19T22:54:10.230Z,9.60
2018-03-19T22:56:37.835Z,8.50
2018-03-19T22:59:06.207Z,7.10
2018-03-19T23:01:33.824Z,4.67
2018-03-19T23:04:01.538Z,5.97
2018-03-19T23:06:29.126Z,5.87
2018-03-19T23:08:56.737Z,6.60
2018-03-19T23:11:25.101Z,6.17
2018-03-19T23:13:53.658Z,2.73
2018-03-19T23:16:21.272Z,2.80
2018-03-19T23:18:48.882Z,3.00
2018-03-19T23:21:16.493Z,3.67
2018-03-19T23:23:44.110Z,1.73
2018-03-19T23:26:11.717Z,4.47
2018-03-19T23:28:39.310Z,2.20
2018-03-19T23:31:06.921Z,1.37
2018-03-19T23:33:34.538Z,1.60
2018-03-19T23:36:02.144Z,2.47
2018-03-19T23:38:29.781Z,1.80
2018-03-19T23:40:57.367Z,1.00
2018-03-19T23:43:24.963Z,2.20
2018-03-19T23:45:52.579Z,1.77
2018-03-19T23:48:20.942Z,1.37
2018-03-19T23:50:49.394Z,1.70
2018-03-19T23:53:17.006Z,0.83
2018-03-19T23:55:44.602Z,1.90
2018-03-19T23:58:12.223Z,2.77
